Martin State Airport
KMTN : now visible

Airfield :











YOU CAN JOIN US ON...

 
LOGIN :

Register | Disclaimer

   EN    FR    IT 

 









Legend :    VFR   Marginal VFR   IFR   Intensive IFR   Very Intensive IFR
Visi :
Ceiling :
>= 8 km
>= 3000ft
5 to 8 km
1000 to 3000 ft
1500m to 5 km
500 to 1000 ft
800 to 1500m
200 to 500 ft
< 800m
< 200 ft
Symbols :   Thunderstorms  Fog  Heavy snow  Heavy precipitations  Wind > 20 kt






- Airport Elevation : 21 ft


KMTN - Martin State

CURRENT METAR :
  • 100604Z AUTO 26017G27KT 10SM CLR 08/M06 A2955 RMK AO2

EXPIRED METARs :
  • 100544Z AUTO 25013G20KT 10SM CLR 08/M05 A2956 RMK AO2
  • 100524Z AUTO 25009G17KT 10SM CLR 08/M03 A2956 RMK AO2
  • 100504Z AUTO 26011G19KT 10SM CLR 08/M03 A2956 RMK AO2
  • 100444Z AUTO 27013G17KT 10SM CLR 08/M02 A2956 RMK AO2
  • 100424Z AUTO 26015G20KT 10SM CLR 08/M02 A2955 RMK AO2
  • 100404Z AUTO 26016G23KT 10SM SCT060 08/M02 A2956 RMK AO2
  • 100344Z AUTO 27019G23KT 10SM CLR 08/M01 A2955 RMK AO2
  • 100324Z AUTO 26017G30KT 10SM SCT110 08/M01 A2955 RMK AO2

TAF KMTN
Valid from the 10 at 06:00 until the 11 at 06:00 UTC


100523Z 1006/1106 27012G22KT P6SM SCT050 BKN130
FM101300 27019G35KT P6SM SCT050 BKN130
FM101500 28022G40KT P6SM SCT050 BKN130
FM102200 29015G35KT P6SM SKC
FM110200 29012G24KT P6SM SKC
FM110400 27009KT P6SM SCT200 AMD NOT SKED



MET'MAP, your aeronautical weather chart ! - Copyright ORBIFLY December 2007 - Disclaimer

ORBIFLY MET'MAP TEAM :

Programming & Development : Alexandra Zaïnal
Concept & original design : Baudouin d'Aumeries
Assistance for programming : Marc-Olivier Méhu
Technical & hardware support : Manuel Goepfert

Contact : metmap@orbifly.com




SOURCES & CREDITS :

   NOAA       Earth
Advisory